createdAt,value
2022-09-15T00:00:51.781Z,88.13
2022-09-15T00:03:39.591Z,88.11
2022-09-15T00:06:07.405Z,88.17
2022-09-15T00:08:34.731Z,88.13
2022-09-15T00:11:08.769Z,88.27
2022-09-15T00:13:37.767Z,88.36
2022-09-15T00:16:05.623Z,88.36
2022-09-15T00:18:33.307Z,88.19
2022-09-15T00:21:00.373Z,87.92
2022-09-15T00:23:27.195Z,88.23
2022-09-15T00:25:54.010Z,88.28
2022-09-15T00:28:22.535Z,88.44
2022-09-15T00:30:52.332Z,88.64
2022-09-15T00:33:21.025Z,88.73
2022-09-15T00:35:50.417Z,88.88
2022-09-15T00:38:18.696Z,89.30
2022-09-15T00:40:51.355Z,89.05
2022-09-15T00:43:39.365Z,89.06
2022-09-15T00:46:06.303Z,89.23
2022-09-15T00:48:34.762Z,89.20
2022-09-15T00:51:04.381Z,89.03
2022-09-15T00:53:33.023Z,89.18
2022-09-15T00:56:01.643Z,89.10
2022-09-15T00:58:38.464Z,89.08
2022-09-15T01:01:08.258Z,89.22
2022-09-15T01:03:36.686Z,89.01
2022-09-15T01:06:15.682Z,89.19
2022-09-15T01:08:46.131Z,88.97
2022-09-15T01:11:16.975Z,89.11
2022-09-15T01:13:44.977Z,89.26
2022-09-15T01:16:31.620Z,89.53
2022-09-15T01:19:05.797Z,89.43
2022-09-15T01:21:52.194Z,89.45
2022-09-15T01:24:38.812Z,89.49
2022-09-15T01:27:41.472Z,89.38
2022-09-15T01:30:16.835Z,89.47
2022-09-15T01:33:05.459Z,89.64
2022-09-15T01:35:52.356Z,90.00
2022-09-15T01:38:31.727Z,89.72
2022-09-15T01:41:17.077Z,90.00
2022-09-15T01:44:05.603Z,90.06
2022-09-15T01:46:37.151Z,90.02
2022-09-15T01:49:06.858Z,90.28
2022-09-15T01:51:36.764Z,90.13
2022-09-15T01:54:05.926Z,90.28
2022-09-15T01:56:33.165Z,90.45
2022-09-15T01:59:00.321Z,90.34
2022-09-15T02:01:50.225Z,90.91
2022-09-15T02:04:27.833Z,91.41
2022-09-15T02:07:02.491Z,91.32
2022-09-15T02:09:37.593Z,91.30
2022-09-15T02:12:19.997Z,91.56
2022-09-15T02:14:57.679Z,91.63
2022-09-15T02:17:29.243Z,91.62
2022-09-15T02:20:03.630Z,91.81
2022-09-15T02:22:34.217Z,91.61
2022-09-15T02:25:07.243Z,91.89
2022-09-15T02:27:44.284Z,91.87
2022-09-15T02:30:14.757Z,91.85
2022-09-15T02:32:51.762Z,91.95
2022-09-15T02:35:19.048Z,91.98
2022-09-15T02:37:46.797Z,91.92
2022-09-15T02:40:13.721Z,92.09
2022-09-15T02:42:42.562Z,92.04
2022-09-15T02:45:09.894Z,92.28
2022-09-15T02:47:36.670Z,92.41
2022-09-15T02:50:03.972Z,92.38
2022-09-15T02:52:30.736Z,92.55
2022-09-15T02:54:57.561Z,92.45
2022-09-15T02:57:25.104Z,92.77
2022-09-15T03:00:10.282Z,92.79
2022-09-15T03:02:37.489Z,92.93
2022-09-15T03:05:04.656Z,93.21
2022-09-15T03:07:32.075Z,93.39
2022-09-15T03:09:59.242Z,93.55
2022-09-15T03:12:26.610Z,93.41
2022-09-15T03:14:53.434Z,93.67
2022-09-15T03:17:20.467Z,93.84
2022-09-15T03:19:47.469Z,93.79
2022-09-15T03:22:14.349Z,93.86
2022-09-15T03:24:42.497Z,94.00
2022-09-15T03:27:09.461Z,94.26
2022-09-15T03:29:36.256Z,94.48
2022-09-15T03:32:03.266Z,94.40
2022-09-15T03:34:30.257Z,94.76
2022-09-15T03:36:57.079Z,95.07
2022-09-15T03:39:24.414Z,95.31
2022-09-15T03:41:51.268Z,95.35
2022-09-15T03:44:18.160Z,95.52
2022-09-15T03:46:45.206Z,95.85
2022-09-15T03:49:12.010Z,95.91
2022-09-15T03:51:38.877Z,96.07
2022-09-15T03:54:06.050Z,96.06
2022-09-15T03:56:33.061Z,96.00
2022-09-15T03:59:04.705Z,95.99
2022-09-15T04:01:32.407Z,95.85
2022-09-15T04:03:59.400Z,96.04
2022-09-15T04:06:26.962Z,96.20
2022-09-15T04:08:54.783Z,96.13
2022-09-15T04:11:22.854Z,96.00
2022-09-15T04:13:50.136Z,95.94
2022-09-15T04:16:19.442Z,96.10
2022-09-15T04:18:46.520Z,95.73
2022-09-15T04:21:16.614Z,95.53
2022-09-15T04:23:45.226Z,95.20
2022-09-15T04:26:28.226Z,95.15
2022-09-15T04:28:55.736Z,94.77
2022-09-15T04:31:22.867Z,93.94
2022-09-15T04:33:52.947Z,93.05
2022-09-15T04:36:25.905Z,93.00
2022-09-15T04:38:52.947Z,92.85
2022-09-15T04:41:20.124Z,92.49
2022-09-15T04:43:47.374Z,92.50
2022-09-15T04:46:15.184Z,92.17
2022-09-15T04:48:43.227Z,92.19
2022-09-15T04:51:16.461Z,92.05
2022-09-15T04:53:44.444Z,92.06
2022-09-15T04:56:17.964Z,91.79
2022-09-15T04:58:51.487Z,91.57
2022-09-15T05:01:21.719Z,91.43
2022-09-15T05:03:49.936Z,91.27
2022-09-15T05:06:19.998Z,90.97
2022-09-15T05:08:48.326Z,91.13
2022-09-15T05:11:15.659Z,90.39
2022-09-15T05:13:43.666Z,89.38
2022-09-15T05:16:13.894Z,89.02
2022-09-15T05:18:42.543Z,88.72
2022-09-15T05:21:12.447Z,88.67
2022-09-15T05:23:39.966Z,87.65
2022-09-15T05:26:11.838Z,87.55
2022-09-15T05:28:38.920Z,87.45
2022-09-15T05:31:17.899Z,86.13
2022-09-15T05:33:45.965Z,86.17
2022-09-15T05:36:17.422Z,85.46
2022-09-15T05:38:44.658Z,84.87
2022-09-15T05:41:13.921Z,84.76
2022-09-15T05:43:40.981Z,85.12
2022-09-15T05:46:08.142Z,85.09
2022-09-15T05:48:35.903Z,84.90
2022-09-15T05:51:03.919Z,82.79
2022-09-15T05:53:31.197Z,82.63
2022-09-15T05:56:00.317Z,82.78
2022-09-15T05:58:28.052Z,82.00
2022-09-15T06:00:55.634Z,81.29
2022-09-15T06:03:27.459Z,81.00
2022-09-15T06:06:02.311Z,80.65
2022-09-15T06:08:39.681Z,80.47
2022-09-15T06:11:15.691Z,81.29
2022-09-15T06:13:44.052Z,81.25
2022-09-15T06:16:14.599Z,80.43
2022-09-15T06:18:41.913Z,80.89
2022-09-15T06:21:21.857Z,80.73
2022-09-15T06:23:56.736Z,80.31
2022-09-15T06:26:24.944Z,79.84
2022-09-15T06:28:57.705Z,77.15
2022-09-15T06:31:26.783Z,77.84
2022-09-15T06:33:56.122Z,77.65
2022-09-15T06:36:26.448Z,77.26
2022-09-15T06:38:54.413Z,77.35
2022-09-15T06:41:22.758Z,75.62
2022-09-15T06:43:49.725Z,75.63
2022-09-15T06:46:20.833Z,74.89
2022-09-15T06:48:48.962Z,75.11
2022-09-15T06:51:17.760Z,74.99
2022-09-15T06:53:46.967Z,73.50
2022-09-15T06:56:20.582Z,73.86
2022-09-15T06:58:50.961Z,73.83
2022-09-15T07:01:31.558Z,73.59
2022-09-15T07:04:01.036Z,72.90
2022-09-15T07:06:30.628Z,71.22
2022-09-15T07:08:58.669Z,70.27
2022-09-15T07:11:25.793Z,70.53
2022-09-15T07:13:53.267Z,70.17
2022-09-15T07:16:21.203Z,71.01
2022-09-15T07:18:49.118Z,70.77
2022-09-15T07:21:19.924Z,71.01
2022-09-15T07:23:48.291Z,69.85
2022-09-15T07:26:15.102Z,69.33
2022-09-15T07:28:46.852Z,70.04
2022-09-15T07:31:17.177Z,69.48
2022-09-15T07:33:45.085Z,70.65
2022-09-15T07:36:12.557Z,69.89
2022-09-15T07:38:41.996Z,69.08
2022-09-15T07:41:20.224Z,69.83
2022-09-15T07:43:52.232Z,69.99
2022-09-15T07:46:22.278Z,69.29
2022-09-15T07:48:51.290Z,68.79
2022-09-15T07:51:19.296Z,69.08
2022-09-15T07:53:48.373Z,69.01
2022-09-15T07:56:18.758Z,69.72
2022-09-15T07:58:47.030Z,69.92
2022-09-15T08:01:15.217Z,69.80
2022-09-15T08:03:46.309Z,69.36
2022-09-15T08:06:13.733Z,69.67
2022-09-15T08:08:44.075Z,67.14
2022-09-15T08:11:18.545Z,66.38
2022-09-15T08:13:47.199Z,66.49
2022-09-15T08:16:18.007Z,66.89
2022-09-15T08:18:45.539Z,66.98
2022-09-15T08:21:17.177Z,66.18
2022-09-15T08:23:44.589Z,65.54
2022-09-15T08:26:14.391Z,64.57
2022-09-15T08:28:42.416Z,63.25
2022-09-15T08:31:11.657Z,64.32
2022-09-15T08:33:44.559Z,64.75
2022-09-15T08:36:13.362Z,65.79
2022-09-15T08:38:41.540Z,64.28
2022-09-15T08:41:17.096Z,64.52
2022-09-15T08:43:51.554Z,63.76
2022-09-15T08:46:24.968Z,63.19
2022-09-15T08:49:02.891Z,62.47
2022-09-15T08:51:40.920Z,62.08
2022-09-15T08:54:16.808Z,62.02
2022-09-15T08:56:44.541Z,62.74
2022-09-15T08:59:14.972Z,60.65
2022-09-15T09:01:55.926Z,61.72
2022-09-15T09:04:59.993Z,61.29
2022-09-15T09:07:54.661Z,61.54
2022-09-15T09:10:29.343Z,61.16
2022-09-15T09:13:13.968Z,61.10
2022-09-15T09:16:09.811Z,58.49
2022-09-15T09:18:47.110Z,58.26
2022-09-15T09:21:20.727Z,58.89
2022-09-15T09:23:54.744Z,59.54
2022-09-15T09:26:21.906Z,58.95
2022-09-15T09:29:19.140Z,58.97
2022-09-15T09:31:49.425Z,58.09
2022-09-15T09:34:42.595Z,57.21
2022-09-15T09:37:13.001Z,57.90
2022-09-15T09:39:40.065Z,56.98
2022-09-15T09:42:14.320Z,55.34
2022-09-15T09:44:42.417Z,55.17
2022-09-15T09:47:10.145Z,54.95
2022-09-15T09:49:48.403Z,54.91
2022-09-15T09:52:37.081Z,54.48
2022-09-15T09:55:21.090Z,53.93
2022-09-15T09:57:48.327Z,53.97
2022-09-15T10:00:33.679Z,54.66
2022-09-15T10:03:21.802Z,55.18
2022-09-15T10:06:02.209Z,54.12
2022-09-15T10:08:29.438Z,53.73
2022-09-15T10:11:03.245Z,53.88
2022-09-15T10:13:30.468Z,53.75
2022-09-15T10:16:01.952Z,51.31
2022-09-15T10:18:32.130Z,51.30
2022-09-15T10:21:01.856Z,50.82
2022-09-15T10:23:34.155Z,50.87
2022-09-15T10:26:16.828Z,51.77
2022-09-15T10:28:45.581Z,52.07
2022-09-15T10:31:26.955Z,51.32
2022-09-15T10:33:54.120Z,51.79
2022-09-15T10:36:40.217Z,51.99
2022-09-15T10:39:28.781Z,52.81
2022-09-15T10:42:53.388Z,51.92
2022-09-15T10:45:40.301Z,52.17
2022-09-15T10:48:35.168Z,52.07
2022-09-15T10:51:19.072Z,51.65
2022-09-15T10:54:28.062Z,52.68
2022-09-15T10:57:08.903Z,52.08
2022-09-15T11:00:00.514Z,52.71
2022-09-15T11:02:42.192Z,52.57
2022-09-15T11:05:40.985Z,51.54
2022-09-15T11:08:31.087Z,51.71
2022-09-15T11:11:19.152Z,51.67
2022-09-15T11:13:56.045Z,52.68
2022-09-15T11:16:54.467Z,53.13
2022-09-15T11:19:43.044Z,53.39
2022-09-15T11:22:22.584Z,52.71
2022-09-15T11:24:53.896Z,53.37
2022-09-15T11:27:20.800Z,52.78
2022-09-15T11:29:47.621Z,53.59
2022-09-15T11:32:24.391Z,53.68
2022-09-15T11:35:03.199Z,53.65
2022-09-15T11:37:38.640Z,53.59
2022-09-15T11:40:22.051Z,53.61
2022-09-15T11:42:56.113Z,53.37
2022-09-15T11:45:32.647Z,52.49
2022-09-15T11:48:24.306Z,51.95
2022-09-15T11:50:55.701Z,51.99
2022-09-15T11:53:32.479Z,52.01
2022-09-15T11:56:32.687Z,52.48
2022-09-15T11:59:32.657Z,53.17
2022-09-15T12:02:57.444Z,53.48
2022-09-15T12:05:30.117Z,54.10
2022-09-15T12:08:21.244Z,54.39
2022-09-15T12:10:55.044Z,53.13
2022-09-15T12:13:24.690Z,53.92
2022-09-15T12:15:52.565Z,53.91
2022-09-15T12:18:40.125Z,53.96
2022-09-15T12:21:32.115Z,54.50
2022-09-15T12:24:14.819Z,54.62
2022-09-15T12:26:46.371Z,54.55
2022-09-15T12:29:22.395Z,54.86
2022-09-15T12:32:12.291Z,54.10
2022-09-15T12:34:39.210Z,54.56
2022-09-15T12:37:16.171Z,55.25
2022-09-15T12:39:45.294Z,55.76
2022-09-15T12:42:18.744Z,56.64
2022-09-15T12:44:52.728Z,56.49
2022-09-15T12:47:25.596Z,55.67
2022-09-15T12:49:56.624Z,55.24
2022-09-15T12:52:25.444Z,55.88
2022-09-15T12:55:01.525Z,55.76
2022-09-15T12:57:37.003Z,54.73
2022-09-15T13:00:42.353Z,55.03
2022-09-15T13:03:28.457Z,54.93
2022-09-15T13:06:10.328Z,54.83
2022-09-15T13:08:37.388Z,55.33
2022-09-15T13:11:15.212Z,55.33
2022-09-15T13:13:48.274Z,55.65
2022-09-15T13:16:30.911Z,55.15
2022-09-15T13:19:07.272Z,55.19
2022-09-15T13:21:37.730Z,54.70
2022-09-15T13:24:12.366Z,54.08
2022-09-15T13:26:42.245Z,54.18
2022-09-15T13:29:15.296Z,54.76
2022-09-15T13:31:48.068Z,54.85
2022-09-15T13:41:01.376Z,54.47
2022-09-15T13:43:50.084Z,55.00
2022-09-15T13:46:50.177Z,55.05
2022-09-15T13:49:29.271Z,55.13
2022-09-15T13:52:14.388Z,55.54
2022-09-15T13:55:17.358Z,55.39
2022-09-15T14:00:45.011Z,55.25
2022-09-15T14:03:17.647Z,55.88
2022-09-15T14:05:45.585Z,55.58
2022-09-15T14:08:20.158Z,55.74
2022-09-15T14:10:54.590Z,55.68
2022-09-15T14:13:24.424Z,56.02
2022-09-15T14:16:11.786Z,55.33
2022-09-15T14:18:45.177Z,54.34
2022-09-15T14:21:24.096Z,53.91
2022-09-15T14:23:53.475Z,54.12
2022-09-15T14:26:29.078Z,55.60
2022-09-15T14:29:02.115Z,56.02
2022-09-15T14:31:35.578Z,55.79
2022-09-15T14:34:06.511Z,55.01
2022-09-15T14:36:34.516Z,55.24
2022-09-15T14:39:08.839Z,54.56
2022-09-15T14:41:36.872Z,53.90
2022-09-15T14:47:22.541Z,54.51
2022-09-15T14:49:49.949Z,54.63
2022-09-15T14:52:27.210Z,54.94
2022-09-15T14:55:03.001Z,55.21
2022-09-15T14:57:36.200Z,54.71
2022-09-15T15:00:09.998Z,55.12
2022-09-15T15:02:55.667Z,54.93
2022-09-15T15:05:35.423Z,55.62
2022-09-15T15:08:06.391Z,56.10
2022-09-15T15:10:35.992Z,56.64
2022-09-15T15:13:12.222Z,56.36
2022-09-15T15:15:39.770Z,55.11
2022-09-15T15:18:31.699Z,55.60
2022-09-15T15:20:59.195Z,56.33
2022-09-15T15:23:26.972Z,56.71
2022-09-15T15:25:54.142Z,56.69
2022-09-15T15:28:36.010Z,56.56
2022-09-15T15:31:15.344Z,57.20
2022-09-15T15:33:52.318Z,57.41
2022-09-15T15:36:24.676Z,58.01
2022-09-15T15:38:54.405Z,58.46
2022-09-15T15:41:23.568Z,58.78
2022-09-15T15:44:27.547Z,59.04
2022-09-15T15:47:12.601Z,59.47
2022-09-15T15:49:56.217Z,59.27
2022-09-15T15:52:26.729Z,59.60
2022-09-15T15:54:53.566Z,59.94
2022-09-15T15:57:22.377Z,60.22
2022-09-15T15:59:53.971Z,60.29
2022-09-15T16:02:22.533Z,60.27
2022-09-15T16:04:49.672Z,60.72
2022-09-15T16:07:19.232Z,61.19
2022-09-15T16:09:48.231Z,61.44
2022-09-15T16:12:16.568Z,61.45
2022-09-15T16:14:43.661Z,61.75
2022-09-15T16:17:10.918Z,61.81
2022-09-15T16:19:37.841Z,61.38
2022-09-15T16:22:05.229Z,61.98
2022-09-15T16:24:32.236Z,62.09
2022-09-15T16:26:59.006Z,62.21
2022-09-15T16:29:29.923Z,62.20
2022-09-15T16:31:57.119Z,62.70
2022-09-15T16:34:23.992Z,62.89
2022-09-15T16:36:51.017Z,63.05
2022-09-15T16:39:18.040Z,63.26
2022-09-15T16:41:44.895Z,63.59
2022-09-15T16:44:18.339Z,63.52
2022-09-15T16:46:45.812Z,63.79
2022-09-15T16:49:12.971Z,64.02
2022-09-15T16:51:39.893Z,64.21
2022-09-15T16:54:18.606Z,64.63
2022-09-15T16:56:46.299Z,65.14
2022-09-15T16:59:13.169Z,65.41
2022-09-15T17:01:40.415Z,65.47
2022-09-15T17:04:16.936Z,65.79
2022-09-15T17:06:43.926Z,66.46
2022-09-15T17:09:12.225Z,66.46
2022-09-15T17:11:39.161Z,66.63
2022-09-15T17:14:06.546Z,66.89
2022-09-15T17:16:33.562Z,67.06
2022-09-15T17:19:00.593Z,67.48
2022-09-15T17:21:27.643Z,67.75
2022-09-15T17:23:54.644Z,67.73
2022-09-15T17:26:27.585Z,67.82
2022-09-15T17:28:58.566Z,67.95
2022-09-15T17:31:26.072Z,68.16
2022-09-15T17:33:53.372Z,68.40
2022-09-15T17:36:20.863Z,68.39
2022-09-15T17:38:50.438Z,68.51
2022-09-15T17:41:20.239Z,68.56
2022-09-15T17:43:49.547Z,68.79
2022-09-15T17:46:16.527Z,68.88
2022-09-15T17:48:43.618Z,69.10
2022-09-15T17:51:17.472Z,69.33
2022-09-15T17:53:46.939Z,69.84
2022-09-15T17:56:14.473Z,70.28
2022-09-15T17:58:42.646Z,70.37
2022-09-15T18:01:13.460Z,70.50
2022-09-15T18:03:45.665Z,70.71
2022-09-15T18:06:13.638Z,71.07
2022-09-15T18:08:41.128Z,71.23
2022-09-15T18:11:08.499Z,71.56
2022-09-15T18:13:36.126Z,71.78
2022-09-15T18:16:11.078Z,72.19
2022-09-15T18:18:40.229Z,72.52
2022-09-15T18:21:24.550Z,72.78
2022-09-15T18:23:51.940Z,72.83
2022-09-15T18:26:21.642Z,73.05
2022-09-15T18:28:54.667Z,73.44
2022-09-15T18:31:22.095Z,73.34
2022-09-15T18:33:49.198Z,73.62
2022-09-15T18:36:16.740Z,73.62
2022-09-15T18:38:43.989Z,73.88
2022-09-15T18:41:11.884Z,73.86
2022-09-15T18:43:39.041Z,74.06
2022-09-15T18:46:06.226Z,74.34
2022-09-15T18:48:33.492Z,74.39
2022-09-15T18:51:00.606Z,74.44
2022-09-15T18:53:27.574Z,74.28
2022-09-15T18:55:54.847Z,74.38
2022-09-15T18:58:22.737Z,74.50
2022-09-15T19:00:50.134Z,74.54
2022-09-15T19:03:17.032Z,74.78
2022-09-15T19:05:45.767Z,74.67
2022-09-15T19:08:12.964Z,74.68
2022-09-15T19:10:42.805Z,74.49
2022-09-15T19:13:12.170Z,74.56
2022-09-15T19:15:40.271Z,74.64
2022-09-15T19:18:07.416Z,74.54
2022-09-15T19:20:34.770Z,74.44
2022-09-15T19:23:01.602Z,74.60
2022-09-15T19:25:28.823Z,74.67
2022-09-15T19:27:55.946Z,74.82
2022-09-15T19:30:23.340Z,75.13
2022-09-15T19:32:50.254Z,75.08
2022-09-15T19:35:17.447Z,75.28
2022-09-15T19:37:44.398Z,75.29
2022-09-15T19:40:14.311Z,75.37
2022-09-15T19:42:42.817Z,75.39
2022-09-15T19:45:11.794Z,75.47
2022-09-15T19:47:39.450Z,75.61
2022-09-15T19:50:08.883Z,75.48
2022-09-15T19:52:35.863Z,75.44
2022-09-15T19:55:04.606Z,75.36
2022-09-15T19:57:31.672Z,75.45
2022-09-15T19:59:58.844Z,75.40
2022-09-15T20:02:26.585Z,75.77
2022-09-15T20:07:39.442Z,75.59
2022-09-15T20:10:07.662Z,75.69
2022-09-15T20:12:35.569Z,75.57
2022-09-15T20:15:02.865Z,75.64
2022-09-15T20:17:30.696Z,75.59
2022-09-15T20:19:58.016Z,75.63
2022-09-15T20:22:25.916Z,75.41
2022-09-15T20:24:53.312Z,75.14
2022-09-15T20:27:20.332Z,75.25
2022-09-15T20:29:48.411Z,75.34
2022-09-15T20:32:15.866Z,75.20
2022-09-15T20:34:43.523Z,75.03
2022-09-15T20:37:11.158Z,75.22
2022-09-15T20:39:56.926Z,74.78
2022-09-15T20:42:24.404Z,74.67
2022-09-15T20:44:51.929Z,74.75
2022-09-15T20:47:19.042Z,74.48
2022-09-15T20:49:46.692Z,74.78
2022-09-15T20:52:15.774Z,75.06
2022-09-15T20:54:43.279Z,75.12
2022-09-15T20:57:10.923Z,75.17
2022-09-15T20:59:38.112Z,75.38
2022-09-15T21:02:06.608Z,75.54
2022-09-15T21:04:34.221Z,75.76
2022-09-15T21:07:01.692Z,76.15
2022-09-15T21:09:28.819Z,76.13
2022-09-15T21:11:56.357Z,76.52
2022-09-15T21:14:23.711Z,76.67
2022-09-15T21:16:51.143Z,77.03
2022-09-15T21:19:18.429Z,77.13
2022-09-15T21:21:45.676Z,77.55
2022-09-15T21:24:12.993Z,77.45
2022-09-15T21:27:00.219Z,77.87
2022-09-15T21:29:28.109Z,78.13
2022-09-15T21:31:56.431Z,78.18
2022-09-15T21:34:24.114Z,78.64
2022-09-15T21:36:53.664Z,78.56
2022-09-15T21:39:21.575Z,78.58
2022-09-15T21:41:48.797Z,78.80
2022-09-15T21:44:16.084Z,78.73
2022-09-15T21:46:47.054Z,78.90
2022-09-15T21:49:14.931Z,78.87
2022-09-15T21:51:42.031Z,78.84
2022-09-15T21:54:10.069Z,78.96
2022-09-15T21:56:37.633Z,79.21
2022-09-15T21:59:05.474Z,79.28
2022-09-15T22:01:33.652Z,79.29
2022-09-15T22:04:03.810Z,79.49
2022-09-15T22:06:41.375Z,79.53
2022-09-15T22:09:14.763Z,79.65
2022-09-15T22:11:42.499Z,80.05
2022-09-15T22:14:11.740Z,79.88
2022-09-15T22:16:40.355Z,80.09
2022-09-15T22:19:09.834Z,80.33
2022-09-15T22:21:39.562Z,80.57
2022-09-15T22:24:07.248Z,80.70
2022-09-15T22:26:37.053Z,80.92
2022-09-15T22:29:05.445Z,80.95
2022-09-15T22:31:34.042Z,81.15
2022-09-15T22:34:01.307Z,81.29
2022-09-15T22:36:30.496Z,81.20
2022-09-15T22:39:05.434Z,81.35
2022-09-15T22:41:37.169Z,81.41
2022-09-15T22:44:05.694Z,81.66
2022-09-15T22:46:33.485Z,81.94
2022-09-15T22:49:01.073Z,82.05
2022-09-15T22:51:28.278Z,82.54
2022-09-15T22:53:57.360Z,82.91
2022-09-15T22:56:26.408Z,83.21
2022-09-15T22:58:55.653Z,83.60
2022-09-15T23:01:25.140Z,84.32
2022-09-15T23:03:57.414Z,84.81
2022-09-15T23:06:27.409Z,84.65
2022-09-15T23:08:57.510Z,85.16
2022-09-15T23:11:25.993Z,84.97
2022-09-15T23:13:53.861Z,85.12
2022-09-15T23:16:22.153Z,85.17
2022-09-15T23:18:50.524Z,85.34
2022-09-15T23:21:17.490Z,85.31
2022-09-15T23:23:47.313Z,85.51
2022-09-15T23:26:17.589Z,85.72
2022-09-15T23:28:44.484Z,85.74
2022-09-15T23:31:13.008Z,85.94
2022-09-15T23:33:40.317Z,86.19
2022-09-15T23:36:10.772Z,86.21
2022-09-15T23:38:40.200Z,86.33
2022-09-15T23:41:08.280Z,86.66
2022-09-15T23:43:35.603Z,86.99
2022-09-15T23:46:03.525Z,86.94
2022-09-15T23:48:33.635Z,86.85
2022-09-15T23:51:00.986Z,86.90
2022-09-15T23:53:29.091Z,86.99
2022-09-15T23:55:56.519Z,87.27
2022-09-15T23:58:23.516Z,87.21
